Hauptseite
METAR-TAF:

METAR-TAF

Flughäfen :

Flughafen Egilsstaðir

Egilsstadir, Island

Breite: 65-17N, Länge: 014-24W, Höhe: 23 m

Beobachtung

Neuester Wetterbericht von vor 27 Minuten, um 23:00 UTC
Wind 11 kt aus Süd
Temperatur 11°C
Luftfeuchtigkeit 66%
Luftdruck 1014 hPa
Sichtweite 10 km oder mehr
Leicht bewölkt in der Höhe von 2800 ft

METAR: BIEG 252300Z 17011KT 9999 FEW028 11/05 Q1014

Zeit: 23:27 (23:27 UTC)

Prognose

Neuester Wetterbericht von vor 3 Stunden und 43 Minuten, um 19:44 UTC
Gültige Prognose vom 25 um 21 UTC bis 26 um 21 UTC
Wind 7 kt aus Süd
Sichtweite 10 km oder mehr
Leicht bewölkt in der Höhe von 2500 ft
Aufgelockert bewölkt in der Höhe von 4500 ft

TAF: BIEG 251944Z 2521/2621 19007KT 9999 FEW025 SCT045 TX15/2612Z TN06/2603Z

Wetterbeobachtungen und Prognosen von mehr als 4000 Flughäfen (METAR und TAF Bericht).

Die verfügbaren Stationen werden durch gelbe und rote Markierungen auf der Karte dargestellt.

Führen Sie die Maus auf sie, um den Namen der Station zu sehen.

Darauf klicken, um die Beobachtung von Wetterbeobachtungen und Prognosen zu sehen.

Um die Karte zu ändern : klicken Sie auf den grünen Tasten mit einem schwarzen Kreuz Zum Vergrößern, auf den grünen Button mit einem Gedankenstrich zu verkleinern, oder auf die grünen Pfeile für benachbarte Karten.


METAR-TAF: